Time;durP1;ratioP1;P1;durP2;ratioP2;P2;SDS_P1;SDS_P2;PMS_P1;PMS_P2;Temp;Humidity;BMP_temperature;BMP_pressure;BME280_temperature;BME280_humidity;BME280_pressure;Samples;Min_cycle;Max_cycle;Signal;HPM_P1;HPM_P2
2022/08/11 00:01:28;;;;;;;12.20;5.03;;;17.70;99.90;;;;;;4983058;28;20038;-93
2022/08/11 00:03:56;;;;;;;9.98;5.40;;;17.60;99.90;;;;;;4983164;28;20046;-92
2022/08/11 00:06:29;;;;;;;12.20;5.60;;;17.60;99.90;;;;;;4999702;28;20038;-92
2022/08/11 00:08:56;;;;;;;15.38;5.88;;;17.60;99.90;;;;;;4999570;28;20038;-92
2022/08/11 00:11:35;;;;;;;11.07;6.30;;;17.50;99.90;;;;;;4998876;28;20042;-93
2022/08/11 00:14:02;;;;;;;11.70;5.88;;;17.50;99.90;;;;;;4982701;28;20058;-92
2022/08/11 00:16:29;;;;;;;11.23;6.00;;;17.40;99.90;;;;;;4986018;28;20122;-93
2022/08/11 00:18:57;;;;;;;12.45;6.20;;;17.80;99.90;;;;;;4980924;28;20046;-92
2022/08/11 00:21:24;;;;;;;12.32;5.90;;;17.40;99.90;;;;;;4998558;28;20052;-93
2022/08/11 00:24:00;;;;;;;10.75;5.72;;;17.30;99.90;;;;;;5002905;28;20030;-92
2022/08/11 00:26:28;;;;;;;11.73;5.60;;;17.30;99.90;;;;;;5002054;28;20441;-93
2022/08/11 00:28:54;;;;;;;11.48;5.95;;;17.30;99.90;;;;;;4979307;28;20050;-91
2022/08/11 00:31:28;;;;;;;11.85;6.00;;;17.20;99.90;;;;;;4997765;28;20043;-93
2022/08/11 00:33:56;;;;;;;11.90;5.63;;;17.20;99.90;;;;;;4998550;28;20497;-93
2022/08/11 00:36:29;;;;;;;12.32;5.65;;;17.10;99.90;;;;;;4997587;28;20053;-93
2022/08/11 00:39:03;;;;;;;14.38;5.80;;;17.10;99.90;;;;;;4980406;28;20126;-92
2022/08/11 00:41:32;;;;;;;12.77;5.82;;;17.00;99.90;;;;;;4998653;28;20486;-92
2022/08/11 00:44:22;;;;;;;11.05;6.07;;;17.00;99.90;;;;;;4987567;28;20096;-94
2022/08/11 00:47:23;;;;;;;12.40;6.43;;;17.00;99.90;;;;;;4998456;28;20478;-93
2022/08/11 00:49:57;;;;;;;11.90;6.57;;;16.90;99.90;;;;;;4979890;28;20046;-92
2022/08/11 00:52:47;;;;;;;11.50;6.25;;;16.90;99.90;;;;;;4997990;28;20141;-92
2022/08/11 00:55:58;;;;;;;13.10;6.45;;;16.90;99.90;;;;;;4999042;28;20399;-92
2022/08/11 00:58:39;;;;;;;11.70;6.82;;;16.80;99.90;;;;;;4980112;28;20057;-93
2022/08/11 01:01:14;;;;;;;12.80;6.43;;;16.70;99.90;;;;;;4979966;28;20137;-93
2022/08/11 01:04:10;;;;;;;11.75;6.55;;;16.80;99.90;;;;;;5001663;28;20026;-92
2022/08/11 01:07:14;;;;;;;13.10;7.05;;;16.70;99.90;;;;;;5003887;28;20089;-93
2022/08/11 01:10:08;;;;;;;12.15;7.35;;;16.60;99.90;;;;;;4996981;28;20043;-93
2022/08/11 01:12:55;;;;;;;12.18;6.75;;;16.60;99.90;;;;;;4935671;28;20089;-92
2022/08/11 01:15:33;;;;;;;13.60;7.10;;;16.50;99.90;;;;;;4997875;28;20150;-93
2022/08/11 01:18:33;;;;;;;13.57;7.20;;;16.50;99.90;;;;;;4981228;28;20069;-93
2022/08/11 01:21:25;;;;;;;12.25;7.05;;;16.50;99.90;;;;;;4983839;28;20057;-93
2022/08/11 01:24:38;;;;;;;13.18;7.40;;;16.40;99.90;;;;;;5003083;28;20062;-93
2022/08/11 01:28:07;;;;;;;12.68;7.10;;;16.40;99.90;;;;;;4983346;28;20536;-94
2022/08/11 01:31:10;;;;;;;13.07;7.20;;;16.40;99.90;;;;;;4886286;29;20052;-92
2022/08/11 01:34:20;;;;;;;13.43;7.10;;;16.30;99.90;;;;;;4981113;28;20077;-93
2022/08/11 01:37:12;;;;;;;13.93;6.97;;;16.30;99.90;;;;;;4883842;29;20056;-93
2022/08/11 01:40:15;;;;;;;14.57;7.97;;;16.20;99.90;;;;;;4941927;28;20054;-93
2022/08/11 01:46:21;;;;;;;12.70;7.20;;;16.20;99.90;;;;;;4979016;28;20050;-94
2022/08/11 01:49:08;;;;;;;13.35;7.20;;;16.10;99.90;;;;;;4996328;28;20054;-93
2022/08/11 01:52:08;;;;;;;13.15;7.25;;;16.10;99.90;;;;;;4979925;28;20406;-93
2022/08/11 01:54:52;;;;;;;13.50;7.28;;;16.20;99.90;;;;;;4978918;28;20125;-93
2022/08/11 01:57:36;;;;;;;15.00;8.05;;;16.00;99.90;;;;;;4979754;28;20046;-93
2022/08/11 02:00:17;;;;;;;12.27;7.50;;;16.00;99.90;;;;;;4978161;28;20046;-93
2022/08/11 02:03:03;;;;;;;13.05;7.82;;;16.00;99.90;;;;;;4966206;28;20047;-93
2022/08/11 02:06:01;;;;;;;16.80;8.30;;;15.90;99.90;;;;;;4982126;28;20061;-93
2022/08/11 02:08:56;;;;;;;14.32;7.88;;;15.90;99.90;;;;;;4980300;28;20043;-93
2022/08/11 02:11:29;;;;;;;13.52;8.07;;;15.90;99.90;;;;;;4977302;28;20139;-93
2022/08/11 02:14:25;;;;;;;15.15;8.00;;;16.40;99.90;;;;;;4964099;28;20110;-92
2022/08/11 02:17:15;;;;;;;17.02;8.00;;;15.80;99.90;;;;;;4960195;28;20061;-92
2022/08/11 02:26:24;;;;;;;14.60;8.07;;;15.70;99.90;;;;;;4972377;28;20058;-93
2022/08/11 02:28:54;;;;;;;14.27;8.38;;;15.70;99.90;;;;;;4979494;28;20051;-93
2022/08/11 02:34:55;;;;;;;14.63;8.90;;;15.70;99.90;;;;;;4982267;28;20050;-93
2022/08/11 02:37:23;;;;;;;17.60;9.60;;;15.70;99.90;;;;;;4992362;28;20023;-91
2022/08/11 02:39:57;;;;;;;14.00;8.60;;;15.70;99.90;;;;;;4974903;28;20055;-93
2022/08/11 02:43:09;;;;;;;15.77;9.40;;;15.70;99.90;;;;;;4963385;28;20050;-93
2022/08/11 02:46:05;;;;;;;15.70;9.27;;;15.70;99.90;;;;;;4980987;28;20093;-92
2022/08/11 02:51:52;;;;;;;16.00;9.95;;;15.70;99.90;;;;;;4962838;28;20082;-93
2022/08/11 02:54:52;;;;;;;18.67;9.60;;;15.60;99.90;;;;;;4963007;28;20499;-93
2022/08/11 02:57:40;;;;;;;15.73;9.77;;;15.60;99.90;;;;;;4962477;28;20121;-93
2022/08/11 03:00:11;;;;;;;16.95;10.05;;;15.60;99.90;;;;;;4979915;28;20035;-93
2022/08/11 03:03:01;;;;;;;16.38;9.57;;;15.60;99.90;;;;;;4961977;28;20106;-92
2022/08/11 03:05:47;;;;;;;16.05;10.23;;;15.50;99.90;;;;;;4962834;28;20517;-92
2022/08/11 03:08:22;;;;;;;16.02;10.65;;;15.50;99.90;;;;;;4962919;28;20086;-93
2022/08/11 03:17:23;;;;;;;17.63;11.10;;;15.50;99.90;;;;;;4979148;28;20410;-92
2022/08/11 03:20:16;;;;;;;19.88;10.52;;;15.40;99.90;;;;;;4962653;28;20114;-94
2022/08/11 03:22:56;;;;;;;16.35;9.90;;;15.40;99.90;;;;;;4969149;28;20059;-92
2022/08/11 03:25:53;;;;;;;16.13;10.55;;;15.40;99.90;;;;;;4981169;28;20042;-93
2022/08/11 03:28:31;;;;;;;16.95;10.57;;;15.40;99.90;;;;;;4980866;28;20510;-93
2022/08/11 03:31:31;;;;;;;15.65;9.23;;;15.30;99.90;;;;;;4961707;28;20042;-93
2022/08/11 03:34:04;;;;;;;17.42;9.80;;;15.30;99.90;;;;;;4979521;28;20039;-93
2022/08/11 03:36:36;;;;;;;16.73;10.45;;;15.30;99.90;;;;;;4962095;28;20058;-93
2022/08/11 03:39:07;;;;;;;16.67;10.77;;;15.20;99.90;;;;;;4961360;28;20054;-93
2022/08/11 03:41:48;;;;;;;19.02;11.48;;;15.30;99.90;;;;;;4979328;28;20050;-93
2022/08/11 03:44:19;;;;;;;17.58;11.00;;;15.20;99.90;;;;;;4979259;28;20047;-93
2022/08/11 03:47:09;;;;;;;17.05;11.07;;;15.20;99.90;;;;;;4978137;28;20073;-93
2022/08/11 03:50:01;;;;;;;17.85;10.60;;;15.20;99.90;;;;;;4961711;28;20117;-93
2022/08/11 03:52:45;;;;;;;18.27;11.30;;;15.10;99.90;;;;;;5038456;23;20053;-93
2022/08/11 03:55:34;;;;;;;18.83;11.48;;;15.20;99.90;;;;;;5000594;28;20053;-92
2022/08/11 03:58:00;;;;;;;18.58;11.65;;;15.20;99.90;;;;;;5000265;28;20057;-93
2022/08/11 04:00:37;;;;;;;18.23;11.50;;;15.20;99.90;;;;;;5016002;28;20054;-93
2022/08/11 04:03:16;;;;;;;18.08;10.98;;;15.20;99.90;;;;;;4998770;28;20052;-92
2022/08/11 04:05:47;;;;;;;17.02;10.48;;;15.20;99.90;;;;;;4999822;28;20061;-93
2022/08/11 04:08:31;;;;;;;18.35;11.82;;;15.20;99.90;;;;;;5004035;28;20050;-92
2022/08/11 04:11:03;;;;;;;;;;;15.20;99.90;;;;;;5006856;28;20082;-93
2022/08/11 04:13:44;;;;;;;18.38;11.13;;;15.20;99.90;;;;;;5018253;28;19921;-93
2022/08/11 04:16:34;;;;;;;16.75;9.93;;;15.20;99.90;;;;;;5004837;28;20050;-92
2022/08/11 04:19:37;;;;;;;17.63;10.90;;;15.10;99.90;;;;;;5021212;28;20057;-92
2022/08/11 04:22:21;;;;;;;17.58;10.90;;;15.10;99.90;;;;;;5000547;28;20600;-92
2022/08/11 04:25:09;;;;;;;17.52;10.27;;;15.10;99.90;;;;;;5003611;28;20054;-93
2022/08/11 04:27:47;;;;;;;17.58;10.65;;;15.10;99.90;;;;;;5019264;28;20049;-93
2022/08/11 04:30:32;;;;;;;18.20;11.00;;;15.10;99.90;;;;;;5021549;28;20485;-93
2022/08/11 04:33:16;;;;;;;20.30;10.75;;;15.10;99.90;;;;;;5021527;28;20089;-92
2022/08/11 04:36:11;;;;;;;18.77;11.23;;;15.10;99.90;;;;;;5009510;28;20064;-91
2022/08/11 04:39:13;;;;;;;21.30;11.10;;;15.10;99.90;;;;;;4987276;28;20046;-92
2022/08/11 04:45:35;;;;;;;16.35;10.15;;;15.10;99.90;;;;;;4905379;29;20077;-93
2022/08/11 05:06:56;;;;;;;18.40;11.13;;;15.50;99.90;;;;;;5020140;28;20109;-92
2022/08/11 05:09:43;;;;;;;18.30;10.95;;;15.60;99.90;;;;;;5015624;28;20065;-93
2022/08/11 05:12:25;;;;;;;17.67;10.98;;;15.60;99.90;;;;;;5018414;28;20046;-91
2022/08/11 05:35:03;;;;;;;16.15;9.63;;;16.00;99.90;;;;;;5014236;28;20144;-83
2022/08/11 05:37:29;;;;;;;16.00;9.98;;;16.10;99.90;;;;;;5013617;28;20121;-84
2022/08/11 05:57:26;;;;;;;15.98;9.48;;;16.90;99.90;;;;;;4978466;28;20050;-88
2022/08/11 05:59:58;;;;;;;16.25;9.60;;;16.50;99.90;;;;;;4977479;28;20092;-85
2022/08/11 06:02:25;;;;;;;16.23;9.85;;;16.50;99.90;;;;;;4971285;28;20045;-84
2022/08/11 06:04:57;;;;;;;14.50;9.43;;;16.60;99.90;;;;;;4983117;28;20035;-84
2022/08/11 06:07:28;;;;;;;14.55;8.88;;;16.60;99.90;;;;;;4965018;28;20055;-84
2022/08/11 06:09:55;;;;;;;13.60;8.68;;;16.70;99.90;;;;;;4985795;28;20038;-84
2022/08/11 06:12:35;;;;;;;15.52;8.77;;;16.70;99.90;;;;;;4993990;28;20544;-84
2022/08/11 06:15:06;;;;;;;15.88;8.27;;;16.80;99.90;;;;;;4976254;28;20038;-84
2022/08/11 06:17:41;;;;;;;15.07;8.45;;;16.90;99.90;;;;;;4998019;28;20061;-84
2022/08/11 06:20:11;;;;;;;15.73;7.90;;;17.30;99.90;;;;;;4996319;28;20137;-85
2022/08/11 06:23:05;;;;;;;15.65;8.43;;;17.00;99.90;;;;;;4981078;28;20127;-84
2022/08/11 06:25:34;;;;;;;14.77;8.10;;;17.10;99.90;;;;;;4968950;28;20050;-82
2022/08/11 06:28:04;;;;;;;14.40;8.25;;;17.20;99.90;;;;;;4977494;28;20046;-81
2022/08/11 06:30:38;;;;;;;12.70;7.32;;;17.20;99.90;;;;;;4978977;28;20074;-82
2022/08/11 06:33:09;;;;;;;13.88;8.23;;;17.30;99.90;;;;;;4961194;28;20046;-81
2022/08/11 06:35:57;;;;;;;12.95;7.75;;;17.40;99.90;;;;;;4960309;28;20043;-81
2022/08/11 06:38:52;;;;;;;13.52;8.10;;;17.40;99.90;;;;;;4977954;28;20079;-81
2022/08/11 06:41:31;;;;;;;13.25;8.02;;;17.50;99.90;;;;;;4977339;28;20075;-83
2022/08/11 06:43:56;;;;;;;13.00;7.93;;;17.70;99.90;;;;;;4977551;28;20051;-81
2022/08/11 06:46:29;;;;;;;13.98;8.23;;;17.70;99.90;;;;;;4960779;28;20081;-81
2022/08/11 06:48:55;;;;;;;12.77;7.57;;;17.80;99.90;;;;;;4977203;28;20050;-82
2022/08/11 06:51:22;;;;;;;16.20;8.00;;;17.90;99.90;;;;;;4963465;28;20185;-83
2022/08/11 06:53:47;;;;;;;15.75;7.90;;;18.30;99.90;;;;;;4979816;28;20176;-83
2022/08/11 07:02:15;;;;;;;12.43;6.93;;;18.40;99.90;;;;;;4978647;28;20402;-81
2022/08/11 07:05:07;;;;;;;12.20;7.45;;;18.60;99.90;;;;;;4979717;28;20046;-81
2022/08/11 07:16:40;;;;;;;11.23;6.18;;;19.40;99.90;;;;;;4995338;28;20044;-83
2022/08/11 07:30:28;;;;;;;11.57;5.45;;;20.50;99.90;;;;;;4997699;28;20046;-83
2022/08/11 07:32:56;;;;;;;11.13;4.68;;;20.90;99.90;;;;;;4987413;28;20074;-84
2022/08/11 07:35:35;;;;;;;10.70;4.72;;;21.00;99.90;;;;;;4986672;28;20414;-82
2022/08/11 07:38:06;;;;;;;13.98;4.82;;;21.10;99.90;;;;;;4985657;28;20185;-85
2022/08/11 07:40:34;;;;;;;10.15;4.40;;;21.40;99.90;;;;;;4987420;28;20132;-83
2022/08/11 07:43:00;;;;;;;10.85;4.30;;;21.50;99.90;;;;;;4988242;28;20042;-84
2022/08/11 07:53:49;;;;;;;14.30;4.05;;;22.20;99.90;;;;;;4978529;28;20057;-90
2022/08/11 07:56:18;;;;;;;9.45;3.60;;;22.50;99.90;;;;;;4978578;28;20446;-92
2022/08/11 08:18:12;;;;;;;9.02;3.17;;;23.50;99.90;;;;;;4994946;28;20045;-91
2022/08/11 08:21:10;;;;;;;9.02;3.20;;;23.80;99.90;;;;;;4976980;28;20086;-93
2022/08/11 08:32:26;;;;;;;8.02;2.55;;;24.40;99.90;;;;;;4997481;28;20056;-92
2022/08/11 08:34:54;;;;;;;9.52;2.65;;;25.10;99.90;;;;;;4985941;28;20046;-91
2022/08/11 08:37:38;;;;;;;7.55;2.20;;;24.70;99.90;;;;;;4986592;28;20081;-89
2022/08/11 08:40:26;;;;;;;7.90;2.63;;;24.80;99.90;;;;;;5003552;28;20061;-91
2022/08/11 08:43:17;;;;;;;6.78;2.60;;;24.90;99.90;;;;;;4989236;28;20076;-88
2022/08/11 08:45:43;;;;;;;8.57;2.42;;;25.00;99.90;;;;;;4988641;28;20074;-89
2022/08/11 08:48:33;;;;;;;8.48;2.42;;;25.20;99.90;;;;;;5012549;28;20058;-90
2022/08/11 08:53:53;;;;;;;7.53;2.40;;;25.60;99.90;;;;;;5013501;28;20096;-93
2022/08/11 08:56:41;;;;;;;7.80;2.40;;;25.80;99.90;;;;;;5012041;28;20037;-89
2022/08/11 08:59:22;;;;;;;7.68;2.30;;;25.90;99.90;;;;;;5017005;28;20052;-92
2022/08/11 09:02:20;;;;;;;6.60;2.20;;;26.50;99.60;;;;;;5002367;23;20116;-88
2022/08/11 09:05:12;;;;;;;7.30;2.28;;;26.10;99.20;;;;;;4977978;28;20057;-95
2022/08/11 09:07:39;;;;;;;6.10;2.20;;;26.20;99.60;;;;;;4976726;28;20081;-90
2022/08/11 09:10:10;;;;;;;6.15;2.17;;;26.60;99.90;;;;;;4975661;28;20045;-95
2022/08/11 09:12:39;;;;;;;7.63;2.58;;;26.70;99.50;;;;;;4977206;28;20442;-93
2022/08/11 09:15:24;;;;;;;6.43;2.45;;;26.90;98.60;;;;;;4977215;28;20061;-93
2022/08/11 09:18:02;;;;;;;5.55;2.22;;;27.10;98.40;;;;;;4996147;28;20038;-90
2022/08/11 09:20:46;;;;;;;7.33;2.20;;;27.10;97.20;;;;;;4998719;28;20074;-96
2022/08/11 09:28:45;;;;;;;5.68;2.10;;;27.50;96.00;;;;;;5015903;28;20046;-93
2022/08/11 09:31:13;;;;;;;7.22;2.17;;;27.90;95.20;;;;;;5022421;23;20050;-92
2022/08/11 09:33:53;;;;;;;6.40;2.15;;;27.70;93.60;;;;;;5022303;28;20494;-92
2022/08/11 09:41:54;;;;;;;5.65;2.00;;;28.50;93.20;;;;;;5026241;28;20048;-94
2022/08/11 09:47:13;;;;;;;7.53;2.30;;;28.30;91.60;;;;;;5038617;28;20057;-93
2022/08/11 09:49:43;;;;;;;7.95;2.20;;;28.50;91.00;;;;;;5033153;28;20131;-94
2022/08/11 09:52:13;;;;;;;7.97;2.17;;;28.40;90.60;;;;;;5015036;28;20397;-94
2022/08/11 09:54:41;;;;;;;7.95;2.38;;;28.60;90.30;;;;;;5016067;28;20056;-90
2022/08/11 10:00:13;;;;;;;6.85;2.28;;;28.80;88.80;;;;;;5021876;23;20058;-94
2022/08/11 10:02:57;;;;;;;8.00;2.22;;;28.90;88.40;;;;;;4984511;28;20499;-95
2022/08/11 10:15:32;;;;;;;6.25;2.20;;;29.40;83.20;;;;;;4876509;29;20454;-95
2022/08/11 10:16:33;;;;;;;9.77;2.30;;;29.50;82.40;;;;;;4923605;23;20042;-96
2022/08/11 10:19:30;;;;;;;10.55;2.33;;;29.60;82.10;;;;;;4997008;28;20054;-95
2022/08/11 10:49:39;;;;;;;6.68;2.03;;;30.70;75.40;;;;;;5002769;28;20050;-94
2022/08/11 11:00:40;;;;;;;6.38;2.10;;;31.50;76.00;;;;;;5008068;28;20054;-87
2022/08/11 11:03:06;;;;;;;6.20;2.10;;;31.50;76.20;;;;;;4990111;28;20061;-87
2022/08/11 11:05:37;;;;;;;5.72;2.10;;;31.50;75.00;;;;;;5021654;28;20036;-86
2022/08/11 11:10:57;;;;;;;6.05;2.20;;;31.70;74.20;;;;;;4992904;28;20494;-88
2022/08/11 11:18:59;;;;;;;7.72;2.50;;;31.80;73.90;;;;;;4989749;28;20050;-85
2022/08/11 11:21:28;;;;;;;6.10;2.05;;;32.00;73.60;;;;;;5009340;28;20054;-84
2022/08/11 11:24:12;;;;;;;5.55;2.00;;;32.10;73.20;;;;;;4987180;28;20046;-84
2022/08/11 11:26:54;;;;;;;6.00;2.13;;;32.10;69.40;;;;;;4988998;28;20060;-86
2022/08/11 11:29:26;;;;;;;6.15;2.13;;;32.10;69.70;;;;;;4987685;28;20048;-84
2022/08/11 11:32:13;;;;;;;6.05;2.38;;;32.20;71.70;;;;;;4987875;28;20046;-85
2022/08/11 11:35:10;;;;;;;5.43;2.10;;;32.20;72.20;;;;;;5006102;28;20049;-85
2022/08/11 11:37:38;;;;;;;6.55;2.08;;;32.30;71.00;;;;;;4976708;28;20153;-85
2022/08/11 11:40:13;;;;;;;6.55;2.20;;;32.00;71.50;;;;;;4985295;28;20059;-84
2022/08/11 11:42:44;;;;;;;6.13;2.00;;;32.20;70.20;;;;;;5006168;28;20075;-84
2022/08/11 11:45:14;;;;;;;6.75;2.10;;;32.40;70.90;;;;;;5003807;28;20402;-84
2022/08/11 11:47:40;;;;;;;5.43;1.90;;;32.50;70.60;;;;;;4986440;23;20525;-84
2022/08/11 11:50:08;;;;;;;8.63;2.17;;;32.40;70.60;;;;;;4994088;28;20050;-86
2022/08/11 11:52:36;;;;;;;6.70;2.10;;;32.60;70.50;;;;;;4995282;28;20513;-85
2022/08/11 11:55:03;;;;;;;5.68;2.00;;;32.70;69.70;;;;;;4977605;28;20058;-85
2022/08/11 12:03:01;;;;;;;6.25;2.03;;;33.20;68.50;;;;;;4977449;28;20054;-85
2022/08/11 12:05:27;;;;;;;5.05;2.10;;;33.30;67.70;;;;;;4977610;28;20069;-85
2022/08/11 12:14:39;;;;;;;9.02;2.30;;;33.20;65.60;;;;;;5033307;28;20056;-85
2022/08/11 12:17:05;;;;;;;5.78;2.00;;;33.20;65.50;;;;;;5015855;28;20128;-86
2022/08/11 12:19:31;;;;;;;5.43;1.90;;;33.20;65.70;;;;;;5033717;28;20129;-86
2022/08/11 12:27:28;;;;;;;6.13;1.98;;;33.40;64.00;;;;;;5016598;28;20125;-84
2022/08/11 12:29:55;;;;;;;5.47;1.98;;;33.50;64.00;;;;;;5035090;28;20049;-85
2022/08/11 12:32:25;;;;;;;6.65;1.90;;;33.50;63.20;;;;;;5033758;28;20080;-84
2022/08/11 12:34:52;;;;;;;5.43;1.90;;;33.40;63.00;;;;;;5034648;28;20088;-85
2022/08/11 12:37:23;;;;;;;5.82;2.00;;;33.50;62.90;;;;;;5016763;28;20045;-85
2022/08/11 12:45:27;;;;;;;5.13;1.80;;;33.70;62.40;;;;;;4988361;28;20481;-86
2022/08/11 12:53:36;;;;;;;6.45;1.90;;;33.50;62.70;;;;;;5015188;28;19921;-86
2022/08/11 12:58:51;;;;;;;7.82;1.80;;;34.10;60.80;;;;;;5033451;28;20049;-86
2022/08/11 13:06:50;;;;;;;6.47;2.10;;;34.40;61.60;;;;;;5015471;28;20045;-86
2022/08/11 13:09:17;;;;;;;5.78;1.95;;;34.20;61.00;;;;;;5014955;28;20045;-85
2022/08/11 13:14:53;;;;;;;5.75;1.85;;;34.70;60.40;;;;;;5014478;28;20050;-85
2022/08/11 13:17:21;;;;;;;5.43;1.90;;;34.70;60.20;;;;;;5015728;28;20037;-86
2022/08/11 13:19:49;;;;;;;5.43;2.10;;;34.50;60.10;;;;;;5015508;28;20060;-86
2022/08/11 13:22:17;;;;;;;4.70;1.88;;;34.20;59.40;;;;;;5015068;28;20049;-85
2022/08/11 13:24:44;;;;;;;5.10;1.65;;;34.20;60.20;;;;;;5032668;28;20116;-85
2022/08/11 13:27:11;;;;;;;4.07;1.80;;;34.60;60.00;;;;;;5015356;28;20042;-85
2022/08/11 13:29:40;;;;;;;4.53;1.83;;;34.60;59.60;;;;;;5032704;28;20049;-86
2022/08/11 13:32:06;;;;;;;4.20;1.80;;;34.70;59.00;;;;;;5016179;28;20132;-85
2022/08/11 13:34:34;;;;;;;4.00;1.70;;;34.80;59.50;;;;;;5015688;28;20053;-88
2022/08/11 13:37:03;;;;;;;8.00;1.88;;;34.80;59.40;;;;;;5014143;28;20485;-86
2022/08/11 13:39:30;;;;;;;5.43;1.90;;;34.90;58.90;;;;;;5014993;28;20119;-86
2022/08/11 13:41:59;;;;;;;6.00;2.03;;;35.00;59.10;;;;;;5012575;28;20042;-87
2022/08/11 13:44:30;;;;;;;4.22;1.75;;;35.20;59.40;;;;;;5021272;28;20049;-87
2022/08/11 13:46:59;;;;;;;6.18;1.80;;;35.20;58.40;;;;;;5010987;28;20042;-86
2022/08/11 13:49:26;;;;;;;6.93;1.90;;;35.30;58.80;;;;;;5021328;28;20045;-87
2022/08/11 13:51:54;;;;;;;7.05;1.95;;;35.10;58.60;;;;;;5029023;28;20040;-88
2022/08/11 13:54:26;;;;;;;7.35;2.00;;;35.10;58.20;;;;;;5007056;28;20045;-87
2022/08/11 13:56:55;;;;;;;9.05;1.88;;;35.10;57.60;;;;;;5005218;28;20061;-87
2022/08/11 13:59:24;;;;;;;;;;;35.00;57.80;;;;;;5006692;28;20125;-85
2022/08/11 14:02:03;;;;;;;6.10;1.83;;;34.90;57.50;;;;;;5003891;28;19977;-87
2022/08/11 14:04:38;;;;;;;8.35;1.75;;;35.00;57.20;;;;;;5002891;28;20080;-86
2022/08/11 14:07:06;;;;;;;4.75;1.70;;;35.00;57.30;;;;;;5007682;28;20050;-83
2022/08/11 14:09:36;;;;;;;6.50;2.13;;;35.00;57.70;;;;;;5024346;28;20046;-87
2022/08/11 14:15:00;;;;;;;5.22;2.00;;;34.80;57.40;;;;;;5014438;28;20099;-87
2022/08/11 14:17:31;;;;;;;4.70;1.60;;;34.90;57.00;;;;;;4995901;28;20041;-88
2022/08/11 14:20:02;;;;;;;6.00;1.90;;;35.00;57.70;;;;;;4998678;28;20042;-88
2022/08/11 14:22:28;;;;;;;6.88;1.98;;;35.00;56.90;;;;;;5005112;28;20057;-87
2022/08/11 14:24:56;;;;;;;5.18;1.70;;;35.20;57.50;;;;;;5023517;28;20037;-88
2022/08/11 14:27:25;;;;;;;6.45;1.90;;;35.30;57.20;;;;;;5023038;28;20049;-88
2022/08/11 14:29:53;;;;;;;5.93;1.80;;;35.20;57.40;;;;;;5004377;28;20037;-88
2022/08/11 14:32:25;;;;;;;5.40;1.70;;;35.20;57.20;;;;;;5002563;28;20095;-88
2022/08/11 14:34:52;;;;;;;4.85;1.90;;;35.30;57.10;;;;;;5006436;28;20642;-88
2022/08/11 14:37:21;;;;;;;4.80;1.90;;;35.20;56.80;;;;;;5011972;28;20073;-87
2022/08/11 14:39:51;;;;;;;6.50;1.90;;;34.90;56.90;;;;;;5018495;28;20491;-87
2022/08/11 14:48:00;;;;;;;6.20;1.90;;;35.00;56.60;;;;;;5020425;28;20042;-88
2022/08/11 14:50:27;;;;;;;7.90;2.20;;;35.10;56.90;;;;;;5007803;28;20041;-89
2022/08/11 14:53:03;;;;;;;12.25;8.23;;;35.00;56.70;;;;;;5034110;28;20056;-90
2022/08/11 14:58:20;;;;;;;5.40;1.85;;;35.30;55.90;;;;;;4998121;28;20050;-88
2022/08/11 15:00:51;;;;;;;6.95;1.98;;;35.30;56.40;;;;;;4997385;28;20041;-90
2022/08/11 15:03:17;;;;;;;7.28;2.33;;;35.20;56.50;;;;;;5016289;28;20120;-88
2022/08/11 15:05:49;;;;;;;5.95;2.10;;;34.90;57.40;;;;;;5005839;28;20049;-89
2022/08/11 15:08:17;;;;;;;5.63;2.00;;;34.80;58.20;;;;;;5011638;28;20401;-92
2022/08/11 15:10:45;;;;;;;6.55;2.10;;;34.70;58.00;;;;;;5031721;28;20073;-88
2022/08/11 15:13:15;;;;;;;6.55;2.10;;;34.70;58.20;;;;;;5009481;28;20466;-91
2022/08/11 15:18:25;;;;;;;5.07;1.77;;;34.90;58.60;;;;;;5018111;28;20128;-88
2022/08/11 15:37:45;;;;;;;5.03;1.90;;;33.90;58.70;;;;;;5017390;28;20045;-88
2022/08/11 15:46:16;;;;;;;5.50;2.03;;;33.60;59.60;;;;;;5020450;28;20132;-92
2022/08/11 15:48:53;;;;;;;8.07;2.10;;;33.60;59.80;;;;;;5009495;28;20041;-89
2022/08/11 15:51:44;;;;;;;6.07;2.10;;;33.50;59.70;;;;;;5011174;28;20045;-91
2022/08/11 15:54:14;;;;;;;5.35;1.95;;;33.20;59.10;;;;;;5028670;28;20053;-92
2022/08/11 15:56:49;;;;;;;5.90;2.00;;;32.80;59.30;;;;;;5009375;28;20686;-92
2022/08/11 16:04:51;;;;;;;6.70;2.00;;;32.00;60.10;;;;;;5012728;28;20045;-92
2022/08/11 16:07:34;;;;;;;6.60;2.20;;;31.70;60.60;;;;;;5010912;28;20065;-92
2022/08/11 16:10:06;;;;;;;7.55;2.30;;;31.60;60.60;;;;;;5028375;28;20057;-90
2022/08/11 16:18:55;;;;;;;5.70;1.90;;;31.30;61.00;;;;;;5016760;28;20040;-93
2022/08/11 16:21:42;;;;;;;5.22;2.10;;;31.20;61.40;;;;;;5022986;28;20050;-93
2022/08/11 16:24:11;;;;;;;5.82;2.00;;;31.30;61.50;;;;;;5008424;28;20374;-93
2022/08/11 16:26:54;;;;;;;6.68;2.05;;;31.30;61.40;;;;;;5014611;28;20033;-93
2022/08/11 16:29:22;;;;;;;8.95;2.22;;;31.30;61.90;;;;;;5023495;28;20045;-93
2022/08/11 16:40:23;;;;;;;7.85;2.40;;;31.30;62.00;;;;;;5008822;28;20111;-93
2022/08/11 16:48:36;;;;;;;5.60;2.10;;;31.30;62.40;;;;;;5005020;28;20049;-93
2022/08/11 16:51:22;;;;;;;7.00;2.28;;;31.20;62.40;;;;;;5012103;28;20038;-93
2022/08/11 16:53:48;;;;;;;6.38;2.30;;;31.30;62.30;;;;;;5007608;28;20042;-94
2022/08/11 16:56:35;;;;;;;6.55;2.40;;;31.40;62.40;;;;;;5013653;28;20048;-93
2022/08/11 16:59:14;;;;;;;7.20;2.40;;;32.00;62.60;;;;;;5007575;28;20168;-92
2022/08/11 17:02:00;;;;;;;8.80;2.30;;;32.30;61.90;;;;;;5022751;28;20045;-91
2022/08/11 17:13:15;;;;;;;7.05;2.70;;;32.80;61.20;;;;;;5033554;28;20046;-92
2022/08/11 17:16:06;;;;;;;8.00;2.60;;;32.70;61.10;;;;;;5043568;28;20048;-92
2022/08/11 17:18:53;;;;;;;6.10;2.30;;;32.40;61.10;;;;;;5024679;28;20042;-93
2022/08/11 17:21:25;;;;;;;6.68;2.53;;;32.50;61.70;;;;;;5022367;28;20057;-94
2022/08/11 17:24:04;;;;;;;8.50;2.40;;;32.60;61.60;;;;;;5009382;28;20049;-95
2022/08/11 17:27:00;;;;;;;7.18;2.42;;;32.80;61.00;;;;;;5012509;28;20355;-95
2022/08/11 17:29:39;;;;;;;5.38;2.22;;;33.10;60.90;;;;;;5021670;28;20042;-94
2022/08/11 17:35:39;;;;;;;7.53;2.92;;;33.30;60.90;;;;;;5021026;28;20061;-93
2022/08/11 17:38:20;;;;;;;7.60;2.30;;;33.30;60.50;;;;;;5021378;28;20048;-92
2022/08/11 17:50:21;;;;;;;6.97;2.38;;;33.10;60.50;;;;;;5043753;28;20034;-93
2022/08/11 18:01:34;;;;;;;7.68;2.72;;;32.20;61.60;;;;;;5023908;28;20046;-94
2022/08/11 18:04:04;;;;;;;7.80;2.42;;;32.10;61.70;;;;;;5012062;28;20158;-93
2022/08/11 18:06:30;;;;;;;9.43;2.45;;;31.90;61.80;;;;;;5031720;28;20485;-91
